Time;durP1;ratioP1;P1;durP2;ratioP2;P2;SDS_P1;SDS_P2;PMS_P1;PMS_P2;Temp;Humidity;BMP_temperature;BMP_pressure;BME280_temperature;BME280_humidity;BME280_pressure;Samples;Min_cycle;Max_cycle;Signal;HPM_P1;HPM_P2
2022/10/21 00:01:14;;;;;;;0.10;0.10;;;;;;;12.71;100.00;100745.31;5032599;28;20107;-70
2022/10/21 00:03:39;;;;;;;0.10;0.10;;;;;;;12.72;100.00;100749.69;5036060;28;20115;-70
2022/10/21 00:06:05;;;;;;;0.10;0.10;;;;;;;12.70;100.00;100749.00;5036038;28;20032;-71
2022/10/21 00:08:30;;;;;;;0.10;0.10;;;;;;;12.67;100.00;100754.66;5053778;28;20499;-70
2022/10/21 00:10:58;;;;;;;0.10;0.10;;;;;;;12.72;100.00;100746.16;5055484;28;20127;-70
2022/10/21 00:13:24;;;;;;;0.10;0.10;;;;;;;12.66;100.00;100757.47;5051916;28;20032;-71
2022/10/21 00:15:56;;;;;;;0.00;0.00;;;;;;;12.54;100.00;100736.03;5032224;28;20070;-71
2022/10/21 00:18:22;;;;;;;0.20;0.10;;;;;;;12.70;100.00;100753.53;5052135;28;20028;-71
2022/10/21 00:20:47;;;;;;;0.10;0.10;;;;;;;12.79;100.00;100746.47;5053577;28;20039;-71
2022/10/21 00:23:12;;;;;;;0.10;0.10;;;;;;;12.77;100.00;100745.75;5042746;28;20037;-71
2022/10/21 00:25:38;;;;;;;0.10;0.10;;;;;;;12.69;100.00;100746.44;5044422;28;20777;-70
2022/10/21 00:28:03;;;;;;;0.10;0.10;;;;;;;12.85;100.00;100745.94;5048598;28;20025;-71
2022/10/21 00:30:28;;;;;;;0.10;0.10;;;;;;;12.86;100.00;100748.47;5051722;28;20519;-71
2022/10/21 00:32:54;;;;;;;0.20;0.20;;;;;;;12.78;100.00;100745.63;5052036;28;20478;-71
2022/10/21 00:35:19;;;;;;;0.10;0.10;;;;;;;12.73;100.00;100734.41;5047991;28;20086;-71
2022/10/21 00:37:44;;;;;;;0.20;0.20;;;;;;;12.83;100.00;100743.38;5053409;28;20024;-71
2022/10/21 00:40:10;;;;;;;0.10;0.10;;;;;;;12.75;100.00;100740.50;5039359;28;20060;-71
2022/10/21 00:42:38;;;;;;;0.10;0.10;;;;;;;12.69;100.00;100738.34;5041481;28;20402;-71
2022/10/21 00:45:03;;;;;;;0.10;0.10;;;;;;;12.68;100.00;100736.66;5024757;28;20021;-71
2022/10/21 00:47:29;;;;;;;0.10;0.10;;;;;;;12.63;100.00;100739.75;5060692;28;20034;-71
2022/10/21 00:50:02;;;;;;;0.10;0.10;;;;;;;12.64;100.00;100748.69;5035814;28;20714;-71
2022/10/21 00:52:29;;;;;;;0.10;0.10;;;;;;;12.64;100.00;100716.34;5042868;28;20024;-71
2022/10/21 00:54:55;;;;;;;0.10;0.10;;;;;;;12.71;100.00;100731.00;5046411;28;20481;-71
2022/10/21 00:57:21;;;;;;;0.10;0.10;;;;;;;12.64;100.00;100733.38;5060310;28;20253;-71
2022/10/21 00:59:53;;;;;;;0.10;0.10;;;;;;;12.68;100.00;100737.53;5038062;28;20139;-71
2022/10/21 01:02:18;;;;;;;0.10;0.10;;;;;;;12.54;100.00;100705.56;5053715;28;20029;-71
2022/10/21 01:04:44;;;;;;;0.10;0.10;;;;;;;12.65;100.00;100728.84;5057154;28;20329;-70
2022/10/21 01:07:10;;;;;;;0.10;0.10;;;;;;;12.68;100.00;100721.34;5064740;28;20033;-71
2022/10/21 01:09:36;;;;;;;0.10;0.10;;;;;;;12.62;100.00;100713.81;5040501;28;20107;-71
2022/10/21 01:12:02;;;;;;;0.00;0.00;;;;;;;12.57;100.00;100722.31;5056717;28;20041;-71
2022/10/21 01:14:46;;;;;;;0.10;0.10;;;;;;;12.64;100.00;100724.44;5057963;28;20419;-71
2022/10/21 01:17:36;;;;;;;0.10;0.10;;;;;;;12.61;100.00;100717.50;5041512;28;20020;-72
2022/10/21 01:20:39;;;;;;;0.10;0.10;;;;;;;12.53;100.00;100711.94;5053664;28;20418;-72
2022/10/21 01:23:32;;;;;;;0.10;0.10;;;;;;;12.52;100.00;100712.91;5062003;28;20027;-72
2022/10/21 01:26:00;;;;;;;0.10;0.10;;;;;;;12.60;100.00;100696.94;5058636;28;20035;-70
2022/10/21 01:28:54;;;;;;;0.10;0.10;;;;;;;12.55;100.00;100699.19;5062553;28;20040;-71
2022/10/21 01:31:29;;;;;;;0.10;0.10;;;;;;;12.59;100.00;100698.75;5040341;28;20040;-71
2022/10/21 01:34:09;;;;;;;0.10;0.10;;;;;;;12.65;100.00;100696.50;5037984;28;20043;-71
2022/10/21 01:36:42;;;;;;;0.10;0.10;;;;;;;12.66;100.00;100699.09;5021509;28;20029;-72
2022/10/21 01:39:35;;;;;;;0.10;0.10;;;;;;;12.62;100.00;100694.09;5039496;28;20028;-70
2022/10/21 01:42:04;;;;;;;0.10;0.10;;;;;;;12.66;100.00;100685.63;5049333;28;20121;-70
2022/10/21 01:44:43;;;;;;;0.15;0.15;;;;;;;12.56;100.00;100682.03;5035562;28;20033;-72
2022/10/21 01:47:14;;;;;;;0.10;0.10;;;;;;;12.46;100.00;100679.31;5051716;28;20419;-70
2022/10/21 01:49:44;;;;;;;0.10;0.10;;;;;;;12.35;100.00;100674.88;5037650;28;20032;-70
2022/10/21 01:52:10;;;;;;;0.10;0.10;;;;;;;12.21;100.00;100657.25;5053406;28;20032;-70
2022/10/21 01:54:42;;;;;;;0.10;0.10;;;;;;;12.33;100.00;100663.38;5041725;28;20025;-70
2022/10/21 01:57:09;;;;;;;0.10;0.10;;;;;;;12.29;100.00;100659.25;5034393;28;20025;-70
2022/10/21 01:59:35;;;;;;;0.10;0.10;;;;;;;12.25;100.00;100665.91;5040305;28;20036;-70
2022/10/21 02:02:03;;;;;;;0.10;0.10;;;;;;;12.17;100.00;100650.44;5052411;28;20032;-69
2022/10/21 02:04:33;;;;;;;0.20;0.20;;;;;;;12.17;100.00;100647.72;5036926;28;20396;-70
2022/10/21 02:06:58;;;;;;;0.10;0.10;;;;;;;12.17;100.00;100645.03;5051286;28;20066;-70
2022/10/21 02:09:23;;;;;;;0.10;0.10;;;;;;;12.13;100.00;100643.59;5056514;28;20032;-69
2022/10/21 02:11:51;;;;;;;0.10;0.10;;;;;;;12.13;100.00;100646.28;5037706;28;20024;-69
2022/10/21 02:14:26;;;;;;;0.10;0.10;;;;;;;12.08;100.00;100638.63;5035820;28;20029;-70
2022/10/21 02:16:53;;;;;;;0.10;0.10;;;;;;;12.02;100.00;100636.47;5041283;28;20024;-69
2022/10/21 02:19:18;;;;;;;0.10;0.10;;;;;;;12.02;100.00;100628.41;5057687;28;20062;-69
2022/10/21 02:21:46;;;;;;;0.10;0.10;;;;;;;12.01;100.00;100624.00;5053979;28;20032;-69
2022/10/21 02:24:28;;;;;;;0.10;0.10;;;;;;;11.99;100.00;100623.28;5053556;28;20028;-69
2022/10/21 02:26:54;;;;;;;0.00;0.00;;;;;;;11.96;100.00;100624.38;5035550;28;20070;-69
2022/10/21 02:29:23;;;;;;;0.10;0.10;;;;;;;11.93;100.00;100627.34;5038947;28;20021;-70
2022/10/21 02:32:04;;;;;;;0.10;0.10;;;;;;;11.84;100.00;100626.31;5034786;28;20942;-70
2022/10/21 02:35:02;;;;;;;0.10;0.10;;;;;;;11.81;100.00;100614.94;5050860;28;20471;-70
2022/10/21 02:37:54;;;;;;;0.08;0.08;;;;;;;11.77;100.00;100617.06;4980735;28;20097;-69
2022/10/21 02:40:30;;;;;;;0.10;0.10;;;;;;;11.80;100.00;100618.63;5042664;28;20118;-69
2022/10/21 02:42:59;;;;;;;0.00;0.00;;;;;;;11.72;100.00;100592.38;5033745;28;20384;-69
2022/10/21 02:45:25;;;;;;;0.10;0.10;;;;;;;11.85;100.00;100605.63;5035694;28;20028;-69
2022/10/21 02:47:51;;;;;;;0.10;0.10;;;;;;;11.81;100.00;100610.44;5057236;28;20031;-70
2022/10/21 02:50:16;;;;;;;0.20;0.20;;;;;;;11.78;100.00;100617.91;5055925;28;20476;-70
2022/10/21 02:52:41;;;;;;;0.10;0.10;;;;;;;11.80;100.00;100624.84;5055298;28;20719;-71
2022/10/21 02:55:07;;;;;;;0.10;0.10;;;;;;;11.84;100.00;100620.94;5035628;28;20036;-70
2022/10/21 02:57:32;;;;;;;0.10;0.10;;;;;;;11.90;100.00;100626.75;5056329;28;20075;-71
2022/10/21 02:59:58;;;;;;;0.10;0.10;;;;;;;11.88;100.00;100624.19;5052104;28;20028;-72
2022/10/21 03:02:23;;;;;;;0.10;0.10;;;;;;;11.82;100.00;100617.50;5054120;28;20036;-70
2022/10/21 03:04:48;;;;;;;0.10;0.10;;;;;;;11.82;100.00;100617.50;5054810;28;20202;-71
2022/10/21 03:07:14;;;;;;;0.10;0.10;;;;;;;11.88;100.00;100623.34;5059947;28;20323;-71
2022/10/21 03:09:40;;;;;;;0.10;0.10;;;;;;;11.87;100.00;100617.09;5061204;28;20127;-70
2022/10/21 03:12:05;;;;;;;0.10;0.10;;;;;;;11.83;100.00;100616.53;5056797;28;20515;-71
2022/10/21 03:14:31;;;;;;;0.20;0.20;;;;;;;11.90;100.00;100618.69;5056000;28;20020;-72
2022/10/21 03:16:56;;;;;;;0.10;0.10;;;;;;;11.92;100.00;100611.34;5058289;28;20407;-70
2022/10/21 03:19:21;;;;;;;0.10;0.10;;;;;;;11.78;100.00;100582.97;5056868;28;20021;-71
2022/10/21 03:21:47;;;;;;;0.10;0.10;;;;;;;11.97;100.00;100606.38;5055282;28;21757;-70
2022/10/21 03:24:12;;;;;;;0.10;0.10;;;;;;;11.80;100.00;100581.81;5056863;28;20090;-70
2022/10/21 03:26:37;;;;;;;0.10;0.10;;;;;;;11.87;100.00;100609.03;5057874;28;20443;-70
2022/10/21 03:29:03;;;;;;;0.10;0.10;;;;;;;11.88;100.00;100610.75;5051801;28;20063;-71
2022/10/21 03:31:28;;;;;;;0.10;0.10;;;;;;;11.80;100.00;100605.16;5059593;28;20208;-71
2022/10/21 03:33:53;;;;;;;0.10;0.10;;;;;;;11.78;100.00;100601.78;5054983;28;20381;-72
2022/10/21 03:36:19;;;;;;;0.10;0.10;;;;;;;11.80;100.00;100606.03;5054486;28;20155;-71
2022/10/21 03:38:44;;;;;;;0.10;0.10;;;;;;;11.70;100.00;100599.72;5054012;28;20029;-71
2022/10/21 03:41:10;;;;;;;0.10;0.10;;;;;;;11.74;100.00;100600.34;5059548;28;20028;-71
2022/10/21 03:43:35;;;;;;;0.10;0.10;;;;;;;11.69;100.00;100589.97;5052232;28;20052;-70
2022/10/21 03:46:00;;;;;;;0.10;0.10;;;;;;;11.57;100.00;100589.19;5035052;28;20032;-71
2022/10/21 03:48:25;;;;;;;0.10;0.10;;;;;;;11.62;100.00;100602.25;5053193;28;20033;-71
2022/10/21 03:50:51;;;;;;;0.10;0.10;;;;;;;11.62;100.00;100611.16;5057045;28;20031;-71
2022/10/21 03:53:16;;;;;;;0.10;0.10;;;;;;;11.57;100.00;100607.16;5049119;28;20024;-71
2022/10/21 03:55:41;;;;;;;0.13;0.13;;;;;;;11.50;100.00;100596.94;5035847;28;20028;-72
2022/10/21 03:58:07;;;;;;;0.10;0.10;;;;;;;11.53;100.00;100610.13;5021797;28;20614;-71
2022/10/21 04:00:32;;;;;;;0.10;0.10;;;;;;;11.48;100.00;100611.50;5054383;28;20078;-72
2022/10/21 04:02:57;;;;;;;0.10;0.10;;;;;;;11.45;100.00;100609.91;5051049;28;20028;-71
2022/10/21 04:05:23;;;;;;;0.10;0.10;;;;;;;11.37;100.00;100597.13;5035186;28;20067;-71
2022/10/21 04:07:48;;;;;;;0.10;0.10;;;;;;;11.48;100.00;100593.53;5015151;28;20365;-71
2022/10/21 04:10:13;;;;;;;0.13;0.13;;;;;;;11.43;100.00;100576.94;5019793;28;20127;-70
2022/10/21 04:12:39;;;;;;;0.10;0.10;;;;;;;11.40;100.00;100572.69;5052867;28;20028;-70
2022/10/21 04:15:05;;;;;;;0.10;0.10;;;;;;;11.41;100.00;100584.28;5054050;28;20380;-70
2022/10/21 04:17:31;;;;;;;0.10;0.10;;;;;;;11.38;100.00;100589.94;5049937;28;20060;-70
2022/10/21 04:19:56;;;;;;;0.20;0.20;;;;;;;11.32;100.00;100585.06;5055689;28;20123;-71
2022/10/21 04:22:21;;;;;;;0.10;0.10;;;;;;;11.40;100.00;100593.31;5052945;28;20073;-71
2022/10/21 04:24:47;;;;;;;0.10;0.10;;;;;;;11.40;100.00;100598.69;5054074;28;20919;-71
2022/10/21 04:27:12;;;;;;;0.10;0.10;;;;;;;11.40;100.00;100596.00;5057542;28;20028;-72
2022/10/21 04:29:37;;;;;;;0.10;0.10;;;;;;;11.32;100.00;100598.53;5053328;28;20064;-71
2022/10/21 04:32:02;;;;;;;0.10;0.10;;;;;;;11.32;100.00;100596.66;5028174;28;20072;-71
2022/10/21 04:34:28;;;;;;;0.10;0.10;;;;;;;11.29;100.00;100594.25;5062322;28;20048;-71
2022/10/21 04:36:53;;;;;;;0.10;0.10;;;;;;;11.22;100.00;100591.22;5067110;28;20024;-70
2022/10/21 04:39:18;;;;;;;0.10;0.10;;;;;;;11.15;100.00;100589.19;5063995;28;20036;-70
2022/10/21 04:41:44;;;;;;;0.10;0.10;;;;;;;11.19;100.00;100577.22;5051531;28;20447;-70
2022/10/21 04:44:10;;;;;;;0.10;0.10;;;;;;;11.23;100.00;100597.47;5059803;28;20485;-70
2022/10/21 04:46:35;;;;;;;0.17;0.17;;;;;;;11.22;100.00;100596.59;5063876;28;20025;-70
2022/10/21 04:49:00;;;;;;;0.10;0.10;;;;;;;11.19;100.00;100594.16;5062409;28;20139;-71
2022/10/21 04:51:26;;;;;;;0.13;0.13;;;;;;;11.15;100.00;100578.44;5067984;28;20137;-70
2022/10/21 04:53:51;;;;;;;0.20;0.20;;;;;;;11.22;100.00;100599.28;5059520;28;20044;-71
2022/10/21 04:56:16;;;;;;;0.20;0.20;;;;;;;11.10;100.00;100603.84;5054186;28;20036;-70
2022/10/21 04:58:42;;;;;;;0.10;0.10;;;;;;;11.00;100.00;100602.91;5041744;28;20396;-70
2022/10/21 05:01:07;;;;;;;0.10;0.10;;;;;;;10.93;100.00;100599.06;5058801;28;20033;-70
2022/10/21 05:03:33;;;;;;;0.10;0.10;;;;;;;10.96;100.00;100606.88;5054805;28;20025;-71
2022/10/21 05:05:58;;;;;;;0.10;0.10;;;;;;;10.98;100.00;100610.28;5027307;28;20033;-70
2022/10/21 05:08:23;;;;;;;0.10;0.10;;;;;;;10.93;100.00;100602.59;5060984;28;20029;-70
2022/10/21 05:10:56;;;;;;;0.10;0.10;;;;;;;10.94;100.00;100614.19;5042288;28;20024;-71
2022/10/21 05:13:21;;;;;;;0.10;0.10;;;;;;;10.90;100.00;100610.06;5059598;28;20120;-71
2022/10/21 05:15:47;;;;;;;0.10;0.10;;;;;;;10.86;100.00;100600.53;5063362;28;20111;-70
2022/10/21 05:18:12;;;;;;;0.10;0.10;;;;;;;10.90;100.00;100599.31;5068608;28;20029;-70
2022/10/21 05:20:37;;;;;;;0.10;0.10;;;;;;;10.92;100.00;100594.66;5058921;28;20024;-70
2022/10/21 05:23:03;;;;;;;0.25;0.10;;;;;;;10.78;100.00;100593.13;5061303;28;20704;-70
2022/10/21 05:25:28;;;;;;;0.20;0.20;;;;;;;10.76;100.00;100597.75;5071274;28;20103;-71
2022/10/21 05:27:53;;;;;;;0.15;0.15;;;;;;;10.70;100.00;100599.13;5068462;28;20025;-71
2022/10/21 05:30:19;;;;;;;0.10;0.10;;;;;;;10.72;100.00;100591.81;5060936;28;20107;-70
2022/10/21 05:32:44;;;;;;;0.10;0.10;;;;;;;10.76;100.00;100590.53;5058964;28;20032;-70
2022/10/21 05:35:10;;;;;;;0.10;0.10;;;;;;;10.78;100.00;100585.91;5064750;28;20029;-70
2022/10/21 05:37:36;;;;;;;0.10;0.10;;;;;;;10.82;100.00;100583.84;5059881;28;20029;-70
2022/10/21 05:40:03;;;;;;;0.10;0.10;;;;;;;10.84;100.00;100584.56;5059523;28;20024;-70
2022/10/21 05:42:28;;;;;;;0.10;0.10;;;;;;;10.89;100.00;100584.19;5066404;28;20155;-70
2022/10/21 05:44:54;;;;;;;0.10;0.10;;;;;;;10.97;100.00;100578.16;5058320;28;20024;-70
2022/10/21 05:47:20;;;;;;;0.00;0.00;;;;;;;11.03;100.00;100580.34;5063958;28;20166;-70
2022/10/21 05:49:45;;;;;;;0.10;0.10;;;;;;;11.04;100.00;100574.81;5062430;28;20021;-70
2022/10/21 05:52:11;;;;;;;0.10;0.10;;;;;;;10.91;100.00;100549.97;5058787;28;20078;-71
2022/10/21 05:54:37;;;;;;;0.10;0.10;;;;;;;11.01;100.00;100580.44;5056689;28;20032;-71
2022/10/21 05:57:02;;;;;;;0.03;0.03;;;;;;;10.88;100.00;100564.50;5021904;28;22227;-70
2022/10/21 05:59:27;;;;;;;0.10;0.10;;;;;;;10.93;100.00;100580.25;5032618;28;20534;-71
2022/10/21 06:01:53;;;;;;;0.10;0.10;;;;;;;10.87;100.00;100570.84;5034222;28;20151;-71
2022/10/21 06:04:18;;;;;;;0.17;0.17;;;;;;;10.77;100.00;100548.44;5028812;28;20059;-71
2022/10/21 06:06:43;;;;;;;0.10;0.10;;;;;;;10.92;100.00;100557.91;5053552;28;20025;-71
2022/10/21 06:09:09;;;;;;;0.10;0.10;;;;;;;10.85;100.00;100537.94;5056334;28;20036;-71
2022/10/21 06:11:34;;;;;;;0.10;0.10;;;;;;;10.84;100.00;100524.63;5044529;28;20063;-71
2022/10/21 06:13:59;;;;;;;0.10;0.10;;;;;;;10.97;100.00;100537.84;5037831;28;20039;-71
2022/10/21 06:16:25;;;;;;;0.10;0.10;;;;;;;10.81;100.00;100528.41;5023880;28;20059;-71
2022/10/21 06:18:50;;;;;;;0.10;0.10;;;;;;;10.77;100.00;100551.97;5035549;28;20039;-71
2022/10/21 06:21:15;;;;;;;0.10;0.10;;;;;;;10.71;100.00;100557.00;5024085;28;20036;-71
2022/10/21 06:23:41;;;;;;;0.08;0.08;;;;;;;10.61;100.00;100541.66;5022111;28;20036;-71
2022/10/21 06:26:09;;;;;;;0.20;0.20;;;;;;;10.72;100.00;100556.91;5035741;28;20034;-71
2022/10/21 06:28:36;;;;;;;0.00;0.00;;;;;;;10.77;100.00;100562.72;5049681;28;20460;-71
2022/10/21 06:31:03;;;;;;;0.10;0.10;;;;;;;10.83;100.00;100563.19;5034082;28;20036;-70
2022/10/21 06:33:28;;;;;;;0.10;0.10;;;;;;;10.90;100.00;100569.75;5034052;28;20596;-70
2022/10/21 06:35:54;;;;;;;0.10;0.10;;;;;;;10.95;100.00;100568.38;5025811;28;20032;-68
2022/10/21 06:38:19;;;;;;;0.10;0.10;;;;;;;11.01;100.00;100582.28;5039264;28;20055;-68
2022/10/21 06:40:47;;;;;;;0.10;0.10;;;;;;;10.99;100.00;100568.97;5054846;28;20037;-69
2022/10/21 06:43:12;;;;;;;0.10;0.10;;;;;;;11.01;100.00;100587.66;5055172;28;20024;-69
2022/10/21 06:45:38;;;;;;;0.10;0.10;;;;;;;11.02;100.00;100576.78;5051328;28;20503;-69
2022/10/21 06:48:03;;;;;;;0.10;0.10;;;;;;;11.06;100.00;100575.53;5031566;28;20727;-69
2022/10/21 06:50:28;;;;;;;0.10;0.10;;;;;;;11.12;100.00;100579.56;5053096;28;20480;-70
2022/10/21 06:52:54;;;;;;;0.05;0.05;;;;;;;11.12;100.00;100562.56;5054516;28;20028;-69
2022/10/21 06:55:20;;;;;;;0.10;0.10;;;;;;;11.27;100.00;100579.22;5036820;28;20034;-69
2022/10/21 06:57:45;;;;;;;0.10;0.10;;;;;;;11.24;100.00;100578.50;5055567;28;20051;-69
2022/10/21 07:00:11;;;;;;;0.10;0.10;;;;;;;11.39;100.00;100587.09;5015577;28;20024;-69
2022/10/21 07:02:37;;;;;;;0.10;0.10;;;;;;;11.38;100.00;100598.84;5030823;28;20552;-71
2022/10/21 07:05:03;;;;;;;0.10;0.10;;;;;;;11.43;100.00;100605.66;5048820;28;20032;-69
2022/10/21 07:07:29;;;;;;;0.10;0.10;;;;;;;11.32;100.00;100598.53;5052939;28;20032;-71
2022/10/21 07:09:56;;;;;;;0.10;0.10;;;;;;;11.47;100.00;100610.63;5055202;28;20020;-70
2022/10/21 07:12:23;;;;;;;0.10;0.10;;;;;;;11.59;100.00;100627.56;5052146;28;21001;-72
2022/10/21 07:14:49;;;;;;;0.10;0.10;;;;;;;11.57;100.00;100629.53;5035640;28;20554;-70
2022/10/21 07:17:14;;;;;;;0.10;0.10;;;;;;;11.57;100.00;100615.25;5046001;28;20027;-70
2022/10/21 07:19:40;;;;;;;0.20;0.20;;;;;;;11.62;100.00;100621.91;5049488;28;20032;-69
2022/10/21 07:22:05;;;;;;;0.10;0.10;;;;;;;11.69;100.00;100633.84;5055437;28;20043;-70
2022/10/21 07:24:30;;;;;;;0.10;0.10;;;;;;;11.77;100.00;100626.97;5037921;28;20083;-74
2022/10/21 07:26:56;;;;;;;0.63;0.10;;;;;;;11.82;100.00;100638.16;5034988;28;20064;-71
2022/10/21 07:29:21;;;;;;;0.15;0.15;;;;;;;11.89;100.00;100641.19;5059329;28;20499;-70
2022/10/21 07:31:46;;;;;;;0.10;0.10;;;;;;;11.87;100.00;100624.34;5051280;28;20122;-70
2022/10/21 07:34:12;;;;;;;0.10;0.10;;;;;;;12.04;100.00;100645.25;5050139;28;20032;-70
2022/10/21 07:36:40;;;;;;;0.10;0.10;;;;;;;12.04;100.00;100647.97;5052393;28;20031;-71
2022/10/21 07:39:09;;;;;;;0.20;0.20;;;;;;;12.09;100.00;100653.78;5033307;28;20086;-69
2022/10/21 07:41:39;;;;;;;0.10;0.10;;;;;;;12.18;100.00;100654.81;5054600;28;20051;-69
2022/10/21 07:44:05;;;;;;;0.10;0.10;;;;;;;12.26;100.00;100648.75;5052972;28;20039;-73
2022/10/21 07:46:31;;;;;;;0.10;0.10;;;;;;;12.32;100.00;100652.75;5054111;28;20024;-68
2022/10/21 07:48:56;;;;;;;0.10;0.10;;;;;;;12.34;100.00;100640.88;5048151;28;20082;-68
2022/10/21 07:51:23;;;;;;;0.10;0.10;;;;;;;12.34;100.00;100640.88;5057071;28;20064;-70
2022/10/21 07:53:50;;;;;;;0.10;0.10;;;;;;;12.43;100.00;100637.38;5038144;28;20027;-70
2022/10/21 07:56:19;;;;;;;0.10;0.10;;;;;;;12.45;100.00;100632.66;5034687;28;20078;-69
2022/10/21 07:58:45;;;;;;;0.20;0.20;;;;;;;12.55;100.00;100624.66;5053905;28;20032;-69
2022/10/21 08:01:12;;;;;;;0.10;0.10;;;;;;;12.57;100.00;100638.81;5030380;28;20024;-70
2022/10/21 08:03:37;;;;;;;0.10;0.10;;;;;;;12.56;100.00;100630.88;5045023;28;20032;-69
2022/10/21 08:06:03;;;;;;;0.10;0.10;;;;;;;12.62;100.00;100638.41;5053623;28;20035;-69
2022/10/21 08:08:29;;;;;;;0.10;0.10;;;;;;;12.61;100.00;100620.53;5019005;28;20036;-71
2022/10/21 08:10:55;;;;;;;0.10;0.10;;;;;;;12.54;100.00;100617.56;5053046;28;20036;-69
2022/10/21 08:13:20;;;;;;;0.10;0.10;;;;;;;12.72;100.00;100636.56;5038922;28;20024;-69
2022/10/21 08:15:47;;;;;;;0.10;0.10;;;;;;;12.77;100.00;100640.69;5033359;28;20028;-69
2022/10/21 08:18:13;;;;;;;0.20;0.20;;;;;;;12.81;100.00;100626.81;5050338;28;20457;-70
2022/10/21 08:20:39;;;;;;;0.10;0.10;;;;;;;12.99;100.00;100635.03;5035065;28;20043;-69
2022/10/21 08:23:05;;;;;;;0.10;0.10;;;;;;;12.99;100.00;100636.91;5035475;28;20219;-70
2022/10/21 08:25:30;;;;;;;0.10;0.10;;;;;;;12.98;100.00;100624.41;5051305;28;20155;-69
2022/10/21 08:27:56;;;;;;;0.10;0.10;;;;;;;13.08;100.00;100632.50;5056568;28;20172;-70
2022/10/21 08:30:21;;;;;;;0.10;0.10;;;;;;;13.24;100.00;100634.66;5050234;28;20060;-71
2022/10/21 08:32:46;;;;;;;0.10;0.10;;;;;;;13.17;100.00;100612.81;5047538;28;20116;-71
2022/10/21 08:35:11;;;;;;;0.00;0.00;;;;;;;13.43;100.00;100628.44;5050198;28;20033;-69
2022/10/21 08:37:37;;;;;;;0.20;0.20;;;;;;;13.40;100.00;100623.28;5032112;28;20023;-71
2022/10/21 08:40:02;;;;;;;0.10;0.10;;;;;;;13.42;100.00;100624.88;5053570;28;20731;-71
2022/10/21 08:42:28;;;;;;;0.10;0.10;;;;;;;13.48;100.00;100620.75;5048992;28;20362;-72
2022/10/21 08:44:57;;;;;;;0.10;0.10;;;;;;;13.53;100.00;100633.81;5037952;28;20028;-71
2022/10/21 08:47:32;;;;;;;0.10;0.10;;;;;;;13.56;100.00;100636.22;5058244;28;20098;-71
2022/10/21 08:50:00;;;;;;;0.10;0.10;;;;;;;13.57;100.00;100641.47;5054910;28;20024;-71
2022/10/21 08:52:44;;;;;;;0.10;0.10;;;;;;;13.61;100.00;100631.25;5036819;28;20032;-72
2022/10/21 08:55:15;;;;;;;0.10;0.10;;;;;;;13.57;100.00;100636.06;5057857;28;20031;-70
2022/10/21 08:57:40;;;;;;;0.10;0.10;;;;;;;13.63;100.00;100637.34;5045984;28;20028;-72
2022/10/21 09:00:19;;;;;;;0.10;0.10;;;;;;;13.54;100.00;100630.94;5064348;28;20028;-71
2022/10/21 09:02:57;;;;;;;0.10;0.10;;;;;;;13.57;100.00;100652.25;5054826;28;20024;-71
2022/10/21 09:06:07;;;;;;;0.10;0.10;;;;;;;13.64;100.00;100664.16;5039869;28;20587;-71
2022/10/21 09:08:54;;;;;;;0.10;0.10;;;;;;;13.62;100.00;100652.69;5064782;28;20042;-71
2022/10/21 09:11:37;;;;;;;0.10;0.10;;;;;;;13.48;100.00;100653.97;5057448;28;20053;-70
2022/10/21 09:14:21;;;;;;;0.10;0.10;;;;;;;13.57;100.00;100665.72;5057819;28;20419;-70
2022/10/21 09:17:24;;;;;;;0.10;0.10;;;;;;;13.54;100.00;100671.41;5055238;28;20056;-71
2022/10/21 09:20:01;;;;;;;0.10;0.10;;;;;;;13.59;100.00;100658.34;5058284;28;20037;-71
2022/10/21 09:22:44;;;;;;;0.10;0.10;;;;;;;13.75;100.00;100665.03;5051863;28;20040;-70
2022/10/21 09:25:20;;;;;;;0.10;0.10;;;;;;;13.84;100.00;100666.81;5057346;28;20115;-73
2022/10/21 09:27:45;;;;;;;0.10;0.10;;;;;;;13.95;100.00;100652.31;5040486;28;20033;-72
2022/10/21 09:30:15;;;;;;;0.08;0.08;;;;;;;14.02;100.00;100663.41;5052806;28;20161;-70
2022/10/21 09:32:42;;;;;;;0.10;0.10;;;;;;;13.89;100.00;100664.56;5053794;28;20028;-71
2022/10/21 09:35:19;;;;;;;0.10;0.10;;;;;;;13.90;100.00;100663.56;5037100;28;20032;-72
2022/10/21 09:37:50;;;;;;;0.10;0.10;;;;;;;13.98;100.00;100670.09;5037365;28;20032;-71
2022/10/21 09:40:21;;;;;;;0.00;0.00;;;;;;;13.94;100.00;100670.38;5050135;28;20463;-71
2022/10/21 09:42:49;;;;;;;0.10;0.10;;;;;;;14.01;100.00;100678.72;5062695;28;20020;-70
2022/10/21 09:45:19;;;;;;;0.10;0.10;;;;;;;14.15;100.00;100679.28;5056393;28;20560;-70
2022/10/21 09:47:49;;;;;;;0.10;0.10;;;;;;;14.04;100.00;100672.16;5042819;28;20447;-71
2022/10/21 09:50:15;;;;;;;0.10;0.10;;;;;;;14.14;100.00;100674.88;5040762;28;22222;-69
2022/10/21 09:52:44;;;;;;;0.10;0.10;;;;;;;14.08;100.00;100669.06;5042976;28;20021;-69
2022/10/21 09:55:14;;;;;;;0.10;0.10;;;;;;;14.10;100.00;100661.66;5045576;28;20028;-68
2022/10/21 09:57:46;;;;;;;0.20;0.10;;;;;;;14.25;100.00;100661.16;5057755;28;20024;-71
2022/10/21 10:00:12;;;;;;;0.10;0.10;;;;;;;14.41;100.00;100660.53;5041709;28;20139;-71
2022/10/21 10:02:45;;;;;;;0.10;0.10;;;;;;;14.37;100.00;100672.63;5039119;28;20093;-71
2022/10/21 10:05:37;;;;;;;0.10;0.10;;;;;;;14.46;100.00;100671.75;5044751;28;20040;-71
2022/10/21 10:08:26;;;;;;;0.10;0.10;;;;;;;14.58;100.00;100656.19;5049522;28;20082;-71
2022/10/21 10:11:00;;;;;;;0.10;0.10;;;;;;;14.66;100.00;100667.09;5037493;28;20029;-71
2022/10/21 10:13:27;;;;;;;0.10;0.10;;;;;;;14.74;100.00;100660.97;5046635;28;20038;-71
2022/10/21 10:15:53;;;;;;;0.10;0.10;;;;;;;14.73;100.00;100664.69;5069183;28;20031;-70
2022/10/21 10:18:20;;;;;;;0.10;0.10;;;;;;;14.87;100.00;100670.56;5064103;28;20036;-70
2022/10/21 10:20:46;;;;;;;0.05;0.05;;;;;;;14.92;100.00;100669.13;5058467;28;20055;-70
2022/10/21 10:23:18;;;;;;;0.10;0.10;;;;;;;14.85;100.00;100658.03;5057709;28;20477;-71
2022/10/21 10:25:48;;;;;;;0.00;0.00;;;;;;;14.98;100.00;100678.47;5059903;28;20036;-71
2022/10/21 10:28:18;;;;;;;0.10;0.10;;;;;;;15.05;100.00;100676.00;5041070;28;20122;-70
2022/10/21 10:30:48;;;;;;;0.03;0.03;;;;;;;15.13;100.00;100684.19;5044060;28;20032;-71
2022/10/21 10:33:15;;;;;;;0.00;0.00;;;;;;;15.11;100.00;100695.16;5049086;28;20050;-70
2022/10/21 10:35:56;;;;;;;0.10;0.10;;;;;;;15.18;100.00;100697.25;5056025;28;20056;-72
2022/10/21 10:38:31;;;;;;;0.10;0.10;;;;;;;15.14;100.00;100699.41;5066594;28;20074;-70
2022/10/21 10:41:07;;;;;;;0.10;0.10;;;;;;;15.32;100.00;100699.44;5050299;28;20613;-73
2022/10/21 10:43:35;;;;;;;0.00;0.00;;;;;;;15.23;100.00;100674.16;5046656;28;20028;-72
2022/10/21 10:46:06;;;;;;;0.10;0.10;;;;;;;15.39;100.00;100696.97;5058197;28;20024;-71
2022/10/21 10:48:41;;;;;;;0.10;0.10;;;;;;;15.43;100.00;100707.31;5021408;28;20040;-71
2022/10/21 10:51:28;;;;;;;0.10;0.10;;;;;;;15.47;100.00;100704.28;5043173;28;20045;-72
2022/10/21 10:54:20;;;;;;;0.10;0.10;;;;;;;15.65;100.00;100709.69;5048584;28;20032;-71
2022/10/21 10:57:00;;;;;;;0.10;0.10;;;;;;;15.79;100.00;100708.28;5061636;28;20024;-71
2022/10/21 10:59:50;;;;;;;0.10;0.10;;;;;;;15.62;100.00;100694.63;5038962;28;21018;-70
2022/10/21 11:02:49;;;;;;;0.00;0.00;;;;;;;15.63;100.00;100690.06;5039280;28;20055;-70
2022/10/21 11:05:26;;;;;;;0.10;0.10;;;;;;;15.77;100.00;100694.91;5036604;28;20081;-70
2022/10/21 11:08:15;;;;;;;0.03;0.03;;;;;;;15.81;100.00;100681.91;5045562;28;20031;-73
2022/10/21 11:10:49;;;;;;;0.10;0.10;;;;;;;16.00;100.00;100687.16;5047167;28;20145;-70
2022/10/21 11:13:16;;;;;;;0.00;0.00;;;;;;;16.43;100.00;100687.25;5057699;28;20040;-72
2022/10/21 11:15:48;;;;;;;0.10;0.10;;;;;;;16.61;100.00;100689.88;5051249;28;20036;-75
2022/10/21 11:18:19;;;;;;;0.10;0.10;;;;;;;16.86;100.00;100694.50;5037690;28;20028;-72
2022/10/21 11:20:55;;;;;;;0.05;0.05;;;;;;;17.15;100.00;100693.28;5024876;28;20035;-73
2022/10/21 11:23:44;;;;;;;0.00;0.00;;;;;;;17.36;100.00;100692.81;5040274;28;20151;-72
2022/10/21 11:26:21;;;;;;;0.10;0.10;;;;;;;17.51;100.00;100672.09;5060947;28;20036;-72